Historique des mesures à Cassis (13260), France
Quotidien Résumé Fevrier 20, 2018 Unités:  US    Métrique   Métrique/US
« Précédent (Jour)
Suivant (Jour) »
Quotidien Hebdomadaire Mensuel Annuel Période au choix
  Maximum: Minimum: Moyenne:
Température: 32 °F 40.6 °F 46.2 °F
Point de rosée: 32 °F 24.8 °F 28 °F
Humidité: Humidity % 41 % 46 %
Vitesse du vent: WindSpeedKMH mph 0.0 mph 7 mph
Rafales: WindSpeedGustKMH mph - -
Vent:- - West
Pression: 0 in 29.6 in -
Précipitations: 0 in    
Historical Graphs
 
 
Mesures pour : Fevrier 20, 2018
Heure Temperature Point de rosée Pression Vent Vitesse du vent Rafales Humidité Pluie (par heure) Conditions
32 °F 32 °F 0 in Calm     Humidity % 0 in SoftwareType W/m2
00:12 44.4 °F 24.8 °F 29.8 in NNW 2.9 mph 5.0 mph 46 % 0 in open2300-1.11 W/m2
01:12 43.7 °F 25.2 °F 29.7 in WNW 13.0 mph 14.8 mph 48 % 0 in open2300-1.11 W/m2
02:12 42.3 °F 25.3 °F 29.7 in WNW 7.2 mph 7.2 mph 51 % 0 in open2300-1.11 W/m2
03:12 41.5 °F 26.1 °F 29.7 in WNW 4.7 mph 5.0 mph 54 % 0 in open2300-1.11 W/m2
04:12 42.4 °F 26.1 °F 29.7 in WNW 1.4 mph 4.3 mph 52 % 0 in open2300-1.11 W/m2
05:12 41.9 °F 25.9 °F 29.7 in NNW 1.8 mph 1.8 mph 53 % 0 in open2300-1.11 W/m2
06:12 41.5 °F 26.1 °F 29.7 in Calm     54 % 0 in open2300-1.11 W/m2
07:12 40.6 °F 26.4 °F 29.7 in NNE 2.6 mph 2.9 mph 57 % 0 in open2300-1.11 W/m2
08:12 40.8 °F 26.2 °F 29.7 in ENE 1.4 mph 1.4 mph 56 % 0 in open2300-1.11 W/m2
09:12 43.3 °F 27.9 °F 29.7 in Calm     54 % 0 in open2300-1.11 W/m2
10:12 46.9 °F 27.7 °F 29.7 in WNW 6.4 mph 7.2 mph 47 % 0 in open2300-1.11 W/m2
11:12 49.1 °F 27.3 °F 29.7 in WNW 16.6 mph 16.6 mph 43 % 0 in open2300-1.11 W/m2
12:12 52 °F 29.5 °F 29.6 in NW 9.3 mph 9.3 mph 42 % 0 in open2300-1.11 W/m2
13:12 53.8 °F 30.6 °F 29.6 in WNW 11.1 mph 11.1 mph 41 % 0 in open2300-1.11 W/m2
14:12 54.3 °F 32.2 °F 29.6 in West 11.6 mph 12.2 mph 43 % 0 in open2300-1.11 W/m2
15:12 53.8 °F 32.7 °F 29.6 in West 15.4 mph 15.4 mph 45 % 0 in open2300-1.11 W/m2
16:12 52.7 °F 31.3 °F 29.6 in West 3.5 mph 9.3 mph 44 % 0 in open2300-1.11 W/m2
17:12 52.9 °F 30.9 °F 29.6 in WNW 8.7 mph 8.7 mph 43 % 0 in open2300-1.11 W/m2
18:12 50.2 °F 30 °F 29.6 in WNW 8.7 mph 8.7 mph 46 % 0 in open2300-1.11 W/m2
19:12 48.9 °F 28.9 °F 29.6 in West 13.0 mph 14.3 mph 46 % 0 in open2300-1.11 W/m2
20:12 47.7 °F 27.1 °F 29.6 in NW 12.2 mph 31.4 mph 45 % 0 in open2300-1.11 W/m2
21:12 47.1 °F 27.1 °F 29.6 in WNW 9.7 mph 14.8 mph 46 % 0 in open2300-1.11 W/m2
23:12 45.5 °F 27.3 °F 29.6 in NNW 5.8 mph 5.8 mph 49 % 0 in open2300-1.11 W/m2
Observations météo à CASSIS
WU-History script by Weather Underground - 1 mb